createdAt,value
2023-05-13T00:02:59.699Z,100843.06
2023-05-13T00:06:02.928Z,100846.69
2023-05-13T00:09:04.802Z,100838.88
2023-05-13T00:12:07.131Z,100854.56
2023-05-13T00:15:09.356Z,100853.13
2023-05-13T00:18:11.296Z,100850.59
2023-05-13T00:21:13.068Z,100840.22
2023-05-13T00:24:14.995Z,100789.84
2023-05-13T00:27:16.705Z,100845.41
2023-05-13T00:30:18.684Z,100842.94
2023-05-13T00:33:20.699Z,100825.53
2023-05-13T00:36:22.718Z,100843.81
2023-05-13T00:39:24.807Z,100839.50
2023-05-13T00:42:26.687Z,100818.78
2023-05-13T00:45:28.556Z,100827.75
2023-05-13T00:48:30.454Z,100844.22
2023-05-13T00:51:32.747Z,100857.34
2023-05-13T00:54:34.686Z,100844.38
2023-05-13T00:57:37.540Z,100816.72
2023-05-13T01:01:23.216Z,100848.41
2023-05-13T01:04:44.071Z,100861.75
2023-05-13T01:07:57.878Z,100872.63
2023-05-13T01:11:07.463Z,100876.25
2023-05-13T01:14:13.024Z,100844.22
2023-05-13T01:17:18.937Z,100858.25
2023-05-13T01:20:24.005Z,100863.59
2023-05-13T01:23:26.247Z,100849.03
2023-05-13T01:26:29.437Z,100793.63
2023-05-13T01:29:31.767Z,100816.41
2023-05-13T01:32:36.040Z,100852.03
2023-05-13T01:35:38.424Z,100866.00
2023-05-13T01:38:41.326Z,100871.16
2023-05-13T01:41:44.971Z,100869.44
2023-05-13T01:44:47.043Z,100817.41
2023-05-13T01:47:49.816Z,100846.94
2023-05-13T01:50:52.670Z,100860.03
2023-05-13T01:53:54.471Z,100833.97
2023-05-13T01:56:56.283Z,100852.94
2023-05-13T01:59:58.829Z,100831.81
2023-05-13T02:03:00.692Z,100849.25
2023-05-13T02:06:03.208Z,100862.22
2023-05-13T02:09:05.201Z,100843.00
2023-05-13T02:12:07.570Z,100835.22
2023-05-13T02:15:09.926Z,100837.78
2023-05-13T02:18:11.749Z,100802.97
2023-05-13T02:21:13.714Z,100846.19
2023-05-13T02:24:15.508Z,100835.03
2023-05-13T02:27:17.254Z,100840.94
2023-05-13T02:30:19.140Z,100819.28
2023-05-13T02:33:21.049Z,100836.75
2023-05-13T02:36:22.991Z,100831.44
2023-05-13T02:39:24.954Z,100854.16
2023-05-13T02:42:27.901Z,100834.19
2023-05-13T02:45:30.491Z,100842.84
2023-05-13T02:48:32.344Z,100841.25
2023-05-13T02:51:35.947Z,100842.16
2023-05-13T02:54:40.542Z,100842.25
2023-05-13T02:57:42.990Z,100851.69
2023-05-13T03:00:44.971Z,100855.19
2023-05-13T03:03:46.777Z,100858.69
2023-05-13T03:06:50.931Z,100857.94
2023-05-13T03:09:52.847Z,100834.63
2023-05-13T03:12:54.728Z,100856.16
2023-05-13T03:15:56.552Z,100857.09
2023-05-13T03:18:58.398Z,100787.75
2023-05-13T03:22:01.264Z,100852.69
2023-05-13T03:25:04.825Z,100863.28
2023-05-13T03:28:13.803Z,100866.91
2023-05-13T03:31:18.646Z,100871.22
2023-05-13T03:34:20.761Z,100865.09
2023-05-13T03:37:22.862Z,100843.47
2023-05-13T03:40:25.104Z,100880.91
2023-05-13T03:43:27.065Z,100863.41
2023-05-13T03:46:34.194Z,100875.75
2023-05-13T03:49:36.423Z,100873.19
2023-05-13T03:52:38.344Z,100869.72
2023-05-13T03:55:40.257Z,100876.63
2023-05-13T03:58:42.064Z,100848.94
2023-05-13T04:01:43.920Z,100874.13
2023-05-13T04:04:45.773Z,100880.31
2023-05-13T04:07:47.615Z,100895.81
2023-05-13T04:10:49.340Z,100882.72
2023-05-13T04:13:51.192Z,100881.00
2023-05-13T04:16:52.881Z,100874.88
2023-05-13T04:19:55.117Z,100895.72
2023-05-13T04:22:57.001Z,100891.38
2023-05-13T04:25:58.657Z,100900.16
2023-05-13T04:29:00.403Z,100911.34
2023-05-13T04:32:02.177Z,100900.75
2023-05-13T04:35:04.248Z,100894.53
2023-05-13T04:38:07.550Z,100915.44
2023-05-13T04:41:09.519Z,100924.06
2023-05-13T04:44:15.855Z,100917.34
2023-05-13T04:47:17.662Z,100919.97
2023-05-13T04:50:19.755Z,100925.91
2023-05-13T04:53:22.121Z,100925.00
2023-05-13T04:56:23.946Z,100918.06
2023-05-13T04:59:25.721Z,100903.22
2023-05-13T05:02:30.023Z,100940.59
2023-05-13T05:05:31.828Z,100936.31
2023-05-13T05:08:33.752Z,100940.59
2023-05-13T05:11:35.857Z,100912.69
2023-05-13T05:14:38.286Z,100937.97
2023-05-13T05:17:42.887Z,100917.03
2023-05-13T05:20:45.078Z,100950.78
2023-05-13T05:23:51.929Z,100956.97
2023-05-13T05:26:54.307Z,100912.44
2023-05-13T05:29:56.146Z,100953.28
2023-05-13T05:32:58.272Z,100953.22
2023-05-13T05:36:00.387Z,100946.41
2023-05-13T05:39:02.285Z,100962.97
2023-05-13T05:42:09.022Z,100833.44
2023-05-13T05:45:11.178Z,100953.91
2023-05-13T05:48:13.386Z,100963.28
2023-05-13T05:51:15.774Z,100971.91
2023-05-13T05:54:17.591Z,100968.28
2023-05-13T05:57:19.518Z,100961.25
2023-05-13T06:00:22.976Z,100976.59
2023-05-13T06:03:25.284Z,100946.13
2023-05-13T06:06:27.406Z,100963.41
2023-05-13T06:09:29.206Z,100937.38
2023-05-13T06:12:31.576Z,100977.03
2023-05-13T06:15:33.440Z,100962.75
2023-05-13T06:18:35.229Z,100943.53
2023-05-13T06:21:38.371Z,100971.00
2023-05-13T06:24:42.653Z,100987.91
2023-05-13T06:27:44.461Z,100981.88
2023-05-13T06:30:46.318Z,100973.44
2023-05-13T06:33:48.046Z,100974.88
2023-05-13T06:36:49.762Z,100991.66
2023-05-13T06:39:51.534Z,100969.75
2023-05-13T06:42:54.015Z,100974.94
2023-05-13T06:46:02.715Z,100965.19
2023-05-13T06:49:04.942Z,100986.66
2023-05-13T06:52:07.046Z,100924.88
2023-05-13T06:55:10.528Z,100995.00
2023-05-13T06:58:12.322Z,100993.97
2023-05-13T07:01:14.224Z,100991.34
2023-05-13T07:04:16.007Z,100993.00
2023-05-13T07:07:17.749Z,100994.69
2023-05-13T07:10:19.582Z,100985.94
2023-05-13T07:13:22.505Z,100999.69
2023-05-13T07:16:24.317Z,100982.69
2023-05-13T07:19:26.200Z,100986.75
2023-05-13T07:22:28.552Z,100978.94
2023-05-13T07:25:30.347Z,100995.69
2023-05-13T07:28:32.038Z,100989.78
2023-05-13T07:31:34.537Z,101009.09
2023-05-13T07:34:36.552Z,101010.88
2023-05-13T07:37:38.752Z,100966.59
2023-05-13T07:40:40.848Z,101026.78
2023-05-13T07:43:42.610Z,101002.69
2023-05-13T07:46:46.058Z,100994.06
2023-05-13T07:49:47.824Z,100986.78
2023-05-13T07:52:51.732Z,100987.50
2023-05-13T07:55:53.492Z,100990.31
2023-05-13T07:58:55.266Z,101011.28
2023-05-13T08:01:57.470Z,101007.50
2023-05-13T08:04:59.374Z,101002.13
2023-05-13T08:08:01.975Z,101014.09
2023-05-13T08:11:03.771Z,101015.72
2023-05-13T08:14:06.139Z,100958.19
2023-05-13T08:17:07.992Z,101025.19
2023-05-13T08:20:11.482Z,101010.69
2023-05-13T08:23:13.215Z,100951.63
2023-05-13T08:26:15.028Z,101020.28
2023-05-13T08:29:16.766Z,101023.78
2023-05-13T08:32:19.332Z,101026.97
2023-05-13T08:35:21.958Z,101022.88
2023-05-13T08:38:23.832Z,101032.47
2023-05-13T08:41:26.469Z,101022.16
2023-05-13T08:44:29.571Z,101040.38
2023-05-13T08:47:57.049Z,101044.69
2023-05-13T08:50:59.351Z,101010.78
2023-05-13T08:54:02.645Z,101037.47
2023-05-13T08:57:04.884Z,101027.31
2023-05-13T09:00:07.786Z,101022.28
2023-05-13T09:03:09.716Z,101034.63
2023-05-13T09:06:11.584Z,101036.34
2023-05-13T09:09:13.893Z,101039.88
2023-05-13T09:12:49.818Z,101042.00
2023-05-13T09:15:51.944Z,101041.19
2023-05-13T09:19:03.334Z,101025.34
2023-05-13T09:22:05.180Z,101007.63
2023-05-13T09:25:11.325Z,101018.63
2023-05-13T09:28:15.224Z,101034.53
2023-05-13T09:31:33.072Z,101007.81
2023-05-13T09:34:35.322Z,101037.66
2023-05-13T09:37:38.014Z,101030.53
2023-05-13T09:40:39.895Z,101044.31
2023-05-13T09:43:42.363Z,101019.47
2023-05-13T09:46:44.197Z,100994.38
2023-05-13T09:49:56.000Z,101032.41
2023-05-13T09:52:57.746Z,100987.16
2023-05-13T09:56:00.536Z,100991.78
2023-05-13T09:59:05.306Z,100994.56
2023-05-13T10:02:08.464Z,101024.28
2023-05-13T10:05:10.787Z,101050.16
2023-05-13T10:08:15.093Z,101024.34
2023-05-13T10:11:18.356Z,101008.03
2023-05-13T10:14:20.832Z,100975.16
2023-05-13T10:17:24.573Z,101021.06
2023-05-13T10:20:26.912Z,100999.69
2023-05-13T10:23:29.556Z,101010.69
2023-05-13T10:26:32.507Z,101001.31
2023-05-13T10:29:40.758Z,101005.81
2023-05-13T10:32:45.098Z,100985.13
2023-05-13T10:36:19.219Z,100908.09
2023-05-13T10:39:46.562Z,101022.59
2023-05-13T10:43:08.776Z,101004.28
2023-05-13T10:46:13.923Z,100994.00
2023-05-13T10:49:16.355Z,100995.47
2023-05-13T10:52:18.088Z,101014.78
2023-05-13T10:55:21.023Z,101011.84
2023-05-13T10:58:32.775Z,101014.38
2023-05-13T11:01:37.847Z,101011.06
2023-05-13T11:04:58.716Z,101020.59
2023-05-13T11:08:00.550Z,101010.53
2023-05-13T11:11:02.812Z,101030.53
2023-05-13T11:14:22.144Z,101043.53
2023-05-13T11:17:23.994Z,101005.59
2023-05-13T11:20:25.768Z,101019.56
2023-05-13T11:23:27.557Z,101013.97
2023-05-13T11:26:46.309Z,101027.97
2023-05-13T11:29:53.395Z,101031.22
2023-05-13T11:32:58.240Z,101044.50
2023-05-13T11:36:01.304Z,101051.06
2023-05-13T11:39:17.114Z,101028.03
2023-05-13T11:42:19.164Z,101035.53
2023-05-13T11:45:22.965Z,101039.81
2023-05-13T11:48:26.338Z,101034.44
2023-05-13T11:51:28.913Z,101041.66
2023-05-13T11:54:30.921Z,101053.16
2023-05-13T11:57:32.933Z,101036.53
2023-05-13T12:00:35.143Z,101046.97
2023-05-13T12:03:37.190Z,101035.16
2023-05-13T12:06:45.984Z,101042.88
2023-05-13T12:09:48.796Z,101030.84
2023-05-13T12:12:51.064Z,101031.66
2023-05-13T12:15:53.496Z,101043.03
2023-05-13T12:19:15.796Z,101042.28
2023-05-13T12:22:21.998Z,101037.63
2023-05-13T12:25:39.831Z,101046.44
2023-05-13T12:28:41.528Z,101027.38
2023-05-13T12:32:02.028Z,101046.56
2023-05-13T12:35:14.214Z,101043.06
2023-05-13T12:38:24.190Z,101049.06
2023-05-13T12:41:29.134Z,100987.22
2023-05-13T12:44:31.851Z,101028.34
2023-05-13T12:47:50.946Z,101028.19
2023-05-13T12:50:56.580Z,101032.25
2023-05-13T12:53:58.534Z,101040.22
2023-05-13T12:57:00.411Z,101021.38
2023-05-13T13:00:02.496Z,101028.13
2023-05-13T13:03:04.466Z,101017.34
2023-05-13T13:06:06.278Z,101015.34
2023-05-13T13:09:07.991Z,101032.66
2023-05-13T13:12:09.866Z,101019.19
2023-05-13T13:15:12.320Z,101030.41
2023-05-13T13:18:14.205Z,101024.13
2023-05-13T13:21:16.043Z,101026.88
2023-05-13T13:24:18.342Z,101008.91
2023-05-13T13:27:20.042Z,101018.63
2023-05-13T13:30:21.902Z,101022.53
2023-05-13T13:33:23.760Z,101006.84
2023-05-13T13:36:25.624Z,101011.63
2023-05-13T13:39:27.357Z,101017.16
2023-05-13T13:42:42.776Z,101011.84
2023-05-13T13:45:46.169Z,100996.78
2023-05-13T13:48:47.897Z,101012.63
2023-05-13T13:51:49.604Z,101001.03
2023-05-13T13:54:51.404Z,101009.00
2023-05-13T13:57:53.338Z,101004.75
2023-05-13T14:00:55.009Z,100997.00
2023-05-13T14:04:23.237Z,101006.25
2023-05-13T14:07:25.084Z,101004.84
2023-05-13T14:10:26.867Z,100998.66
2023-05-13T14:13:28.658Z,100991.28
2023-05-13T14:16:30.815Z,101011.94
2023-05-13T14:19:33.048Z,100995.13
2023-05-13T14:22:34.910Z,100996.41
2023-05-13T14:25:36.821Z,101002.84
2023-05-13T14:28:38.748Z,100974.41
2023-05-13T14:31:40.576Z,100995.31
2023-05-13T14:34:42.947Z,100995.31
2023-05-13T14:37:44.764Z,100993.69
2023-05-13T14:40:46.509Z,101000.69
2023-05-13T14:43:48.848Z,100954.03
2023-05-13T14:46:51.012Z,101003.34
2023-05-13T14:49:52.734Z,100978.75
2023-05-13T14:52:54.570Z,100984.13
2023-05-13T14:55:56.611Z,101000.00
2023-05-13T14:58:58.673Z,100986.97
2023-05-13T15:02:04.324Z,100995.59
2023-05-13T15:05:06.703Z,100953.91
2023-05-13T15:08:09.151Z,101007.41
2023-05-13T15:11:10.953Z,100993.22
2023-05-13T15:14:12.821Z,100990.91
2023-05-13T15:17:16.682Z,100993.25
2023-05-13T15:20:19.416Z,100985.13
2023-05-13T15:23:21.253Z,100996.38
2023-05-13T15:26:22.965Z,100963.41
2023-05-13T15:29:24.645Z,100992.22
2023-05-13T15:32:26.444Z,100972.72
2023-05-13T15:35:28.188Z,100982.00
2023-05-13T15:38:30.238Z,100975.34
2023-05-13T15:41:31.992Z,100966.78
2023-05-13T15:44:33.695Z,100992.53
2023-05-13T15:47:35.817Z,100985.00
2023-05-13T15:50:38.698Z,100962.41
2023-05-13T15:53:43.538Z,100974.97
2023-05-13T15:56:45.315Z,100974.03
2023-05-13T15:59:47.193Z,100974.34
2023-05-13T16:02:49.060Z,100973.09
2023-05-13T16:05:51.480Z,100981.72
2023-05-13T16:08:56.313Z,100980.09
2023-05-13T16:11:58.392Z,100968.28
2023-05-13T16:15:00.670Z,100955.16
2023-05-13T16:18:02.551Z,100947.03
2023-05-13T16:21:04.568Z,100949.34
2023-05-13T16:24:07.242Z,100956.03
2023-05-13T16:27:09.228Z,100925.06
2023-05-13T16:30:11.661Z,100955.91
2023-05-13T16:33:15.988Z,100947.66
2023-05-13T16:36:17.766Z,100937.81
2023-05-13T16:39:19.522Z,100945.28
2023-05-13T16:42:21.279Z,100924.94
2023-05-13T16:45:23.239Z,100941.09
2023-05-13T16:48:25.215Z,100925.91
2023-05-13T16:51:29.385Z,100921.66
2023-05-13T16:54:31.370Z,100934.94
2023-05-13T16:57:33.228Z,100933.53
2023-05-13T17:00:35.047Z,100921.72
2023-05-13T17:03:36.789Z,100920.06
2023-05-13T17:06:38.891Z,100929.66
2023-05-13T17:09:40.834Z,100944.63
2023-05-13T17:12:43.405Z,100948.31
2023-05-13T17:15:46.483Z,100944.22
2023-05-13T17:18:48.547Z,100939.19
2023-05-13T17:21:50.306Z,100935.34
2023-05-13T17:24:52.498Z,100939.53
2023-05-13T17:27:54.293Z,100921.69
2023-05-13T17:30:56.132Z,100935.81
2023-05-13T17:33:57.834Z,100943.41
2023-05-13T17:36:59.660Z,100933.81
2023-05-13T17:40:02.696Z,100936.84
2023-05-13T17:43:04.744Z,100955.59
2023-05-13T17:46:06.598Z,100951.09
2023-05-13T17:49:08.412Z,100875.59
2023-05-13T17:52:10.296Z,100943.34
2023-05-13T17:55:12.047Z,100906.78
2023-05-13T17:58:13.807Z,100924.22
2023-05-13T18:01:15.770Z,100940.59
2023-05-13T18:04:17.578Z,100930.31
2023-05-13T18:07:19.891Z,100913.50
2023-05-13T18:10:21.932Z,100935.72
2023-05-13T18:13:23.779Z,100935.00
2023-05-13T18:16:25.614Z,100943.44
2023-05-13T18:19:27.804Z,100950.22
2023-05-13T18:22:29.683Z,100937.97
2023-05-13T18:25:32.172Z,100960.00
2023-05-13T18:28:34.419Z,100948.13
2023-05-13T18:31:36.142Z,100959.84
2023-05-13T18:34:37.921Z,100954.75
2023-05-13T18:37:39.645Z,100955.84
2023-05-13T18:40:41.425Z,100957.78
2023-05-13T18:43:43.315Z,100931.78
2023-05-13T18:46:45.272Z,100957.03
2023-05-13T18:49:47.316Z,100958.06
2023-05-13T18:52:49.490Z,100970.34
2023-05-13T18:55:51.304Z,100980.84
2023-05-13T18:58:53.086Z,100966.72
2023-05-13T19:01:55.219Z,100977.94
2023-05-13T19:04:57.038Z,100974.47
2023-05-13T19:08:00.559Z,100974.47
2023-05-13T19:11:02.548Z,100980.47
2023-05-13T19:14:04.400Z,100954.44
2023-05-13T19:17:06.469Z,100969.19
2023-05-13T19:20:08.775Z,100959.00
2023-05-13T19:23:10.713Z,100961.44
2023-05-13T19:26:12.378Z,100967.63
2023-05-13T19:29:14.638Z,100965.88
2023-05-13T19:32:16.686Z,100948.53
2023-05-13T19:35:18.929Z,100958.09
2023-05-13T19:38:22.188Z,100956.88
2023-05-13T19:41:24.068Z,100950.81
2023-05-13T19:44:28.056Z,100942.22
2023-05-13T19:47:30.647Z,100960.41
2023-05-13T19:50:32.657Z,100953.38
2023-05-13T19:53:34.454Z,100950.81
2023-05-13T19:56:36.346Z,100950.81
2023-05-13T19:59:39.566Z,100961.56
2023-05-13T20:02:41.521Z,100961.00
2023-05-13T20:05:43.328Z,100951.53
2023-05-13T20:08:45.229Z,100965.44
2023-05-13T20:11:47.090Z,100958.38
2023-05-13T20:14:51.943Z,100877.00
2023-05-13T20:17:53.812Z,100956.81
2023-05-13T20:20:55.842Z,100955.28
2023-05-13T20:23:57.703Z,100940.53
2023-05-13T20:26:59.504Z,100942.38
2023-05-13T20:30:02.242Z,100967.91
2023-05-13T20:33:04.082Z,100944.53
2023-05-13T20:36:06.914Z,100910.94
2023-05-13T20:39:08.730Z,100950.94
2023-05-13T20:42:11.218Z,100898.81
2023-05-13T20:45:12.947Z,100930.94
2023-05-13T20:48:14.814Z,100952.06
2023-05-13T20:51:16.982Z,100885.41
2023-05-13T20:54:18.775Z,100895.00
2023-05-13T20:57:20.469Z,100927.28
2023-05-13T21:00:22.663Z,100945.66
2023-05-13T21:03:25.901Z,100934.00
2023-05-13T21:06:28.069Z,100954.84
2023-05-13T21:09:29.820Z,100948.81
2023-05-13T21:12:31.618Z,100952.41
2023-05-13T21:15:35.077Z,100948.16
2023-05-13T21:18:36.877Z,100927.41
2023-05-13T21:21:38.631Z,100913.59
2023-05-13T21:24:40.380Z,100946.00
2023-05-13T21:27:42.146Z,100910.44
2023-05-13T21:30:44.102Z,100922.69
2023-05-13T21:33:45.869Z,100925.28
2023-05-13T21:36:47.576Z,100929.53
2023-05-13T21:39:49.340Z,100909.59
2023-05-13T21:42:51.227Z,100941.13
2023-05-13T21:45:53.024Z,100933.31
2023-05-13T21:48:54.771Z,100927.28
2023-05-13T21:51:56.577Z,100922.16
2023-05-13T21:54:58.393Z,100920.47
2023-05-13T21:58:00.542Z,100917.16
2023-05-13T22:01:02.456Z,100939.72
2023-05-13T22:04:04.379Z,100936.66
2023-05-13T22:07:06.324Z,100946.59
2023-05-13T22:10:09.507Z,100914.31
2023-05-13T22:13:11.395Z,100924.81
2023-05-13T22:16:14.431Z,100913.41
2023-05-13T22:19:17.026Z,100903.13
2023-05-13T22:22:18.953Z,100917.94
2023-05-13T22:25:21.207Z,100925.09
2023-05-13T22:28:22.967Z,100915.78
2023-05-13T22:31:25.863Z,100909.16
2023-05-13T22:34:27.712Z,100898.78
2023-05-13T22:37:29.597Z,100898.91
2023-05-13T22:40:31.367Z,100921.56
2023-05-13T22:43:33.491Z,100855.56
2023-05-13T22:46:35.262Z,100918.06
2023-05-13T22:49:37.050Z,100911.97
2023-05-13T22:52:39.518Z,100894.44
2023-05-13T22:55:41.432Z,100887.47
2023-05-13T22:58:43.273Z,100901.47
2023-05-13T23:01:45.255Z,100902.34
2023-05-13T23:04:47.066Z,100905.19
2023-05-13T23:07:48.862Z,100915.59
2023-05-13T23:10:50.712Z,100916.47
2023-05-13T23:13:52.458Z,100918.25
2023-05-13T23:16:54.257Z,100910.50
2023-05-13T23:19:56.232Z,100887.94
2023-05-13T23:22:58.102Z,100907.16
2023-05-13T23:25:59.786Z,100913.41
2023-05-13T23:29:01.785Z,100903.13
2023-05-13T23:32:06.416Z,100715.59
2023-05-13T23:35:09.150Z,100893.91
2023-05-13T23:38:10.901Z,100892.94
2023-05-13T23:41:12.703Z,100878.16
2023-05-13T23:44:14.770Z,100894.00
2023-05-13T23:47:16.797Z,100887.88
2023-05-13T23:50:18.662Z,100848.78
2023-05-13T23:53:20.571Z,100879.19
2023-05-13T23:56:22.482Z,100869.44
2023-05-13T23:59:24.270Z,100881.59
